Time;durP1;ratioP1;P1;durP2;ratioP2;P2;SDS_P1;SDS_P2;PMS_P1;PMS_P2;Temp;Humidity;BMP_temperature;BMP_pressure;BME280_temperature;BME280_humidity;BME280_pressure;Samples;Min_cycle;Max_cycle;Signal;HPM_P1;HPM_P2
2022/07/19 00:01:43;;;;;;;2.72;1.33;;;;;;;21.20;nan;-24406.22;4978718;28;20276;-58
2022/07/19 00:04:08;;;;;;;1.45;1.20;;;;;;;20.78;nan;-24394.84;4978520;28;20306;-62
2022/07/19 00:06:34;;;;;;;1.85;1.40;;;;;;;20.93;nan;-24399.00;4979350;28;20204;-59
2022/07/19 00:08:59;;;;;;;1.80;1.30;;;;;;;20.90;nan;-24398.03;4977623;28;20178;-58
2022/07/19 00:11:25;;;;;;;1.77;1.33;;;;;;;20.81;nan;-24395.66;4980103;28;20185;-58
2022/07/19 00:13:51;;;;;;;1.50;1.08;;;;;;;20.83;nan;-24396.22;4977975;28;20328;-60
2022/07/19 00:16:16;;;;;;;3.13;1.80;;;;;;;20.42;nan;-24384.84;4979822;28;20244;-59
2022/07/19 00:18:42;;;;;;;1.30;1.20;;;;;;;20.32;nan;-24382.06;4976945;28;20276;-60
2022/07/19 00:21:07;;;;;;;2.03;1.33;;;;;;;20.02;nan;-24373.88;4980379;28;20189;-59
2022/07/19 00:23:33;;;;;;;1.13;1.02;;;;;;;20.12;nan;-24376.78;4979454;28;20257;-59
2022/07/19 00:25:58;;;;;;;1.60;1.30;;;;;;;20.42;nan;-24384.84;4977649;28;20224;-59
2022/07/19 00:28:24;;;;;;;1.38;1.27;;;;;;;20.12;nan;-24376.78;4979696;28;20268;-60
2022/07/19 00:30:50;;;;;;;2.13;1.40;;;;;;;20.04;nan;-24374.56;4975815;28;20247;-59
2022/07/19 00:33:15;;;;;;;1.65;1.40;;;;;;;20.32;nan;-24382.22;4979008;28;20235;-59
2022/07/19 00:35:41;;;;;;;1.23;1.13;;;;;;;19.93;nan;-24371.38;4976868;28;20193;-59
2022/07/19 00:38:11;;;;;;;1.95;1.60;;;;;;;20.14;nan;-24377.22;4976930;28;20243;-59
2022/07/19 00:40:38;;;;;;;1.38;1.25;;;;;;;19.86;nan;-24369.56;4978069;28;20176;-59
2022/07/19 00:43:04;;;;;;;1.38;1.23;;;;;;;20.13;nan;-24376.94;4977299;28;20211;-60
2022/07/19 00:45:30;;;;;;;1.40;1.30;;;;;;;20.07;nan;-24375.25;4980940;28;20196;-58
2022/07/19 00:47:56;;;;;;;1.42;1.30;;;;;;;19.80;nan;-24367.91;4976042;28;20209;-59
2022/07/19 00:50:23;;;;;;;1.75;1.30;;;;;;;19.66;nan;-24364.16;4978881;28;20273;-59
2022/07/19 00:52:56;;;;;;;1.58;1.48;;;;;;;19.45;nan;-24358.16;4977152;28;20247;-60
2022/07/19 00:55:23;;;;;;;2.00;1.55;;;;;;;19.74;nan;-24366.38;4981693;28;20665;-59
2022/07/19 00:57:49;;;;;;;1.70;1.30;;;;;;;19.17;nan;-24350.66;4977042;28;20177;-58
2022/07/19 01:00:17;;;;;;;1.50;1.40;;;;;;;19.73;nan;-24365.94;4993519;28;20184;-58
2022/07/19 01:02:44;;;;;;;1.88;1.30;;;;;;;19.56;nan;-24361.22;4977053;28;20181;-58
2022/07/19 01:05:11;;;;;;;1.45;1.35;;;;;;;15.57;nan;-24251.28;4977655;28;20233;-59
2022/07/19 01:07:39;;;;;;;1.58;1.35;;;;;;;19.39;nan;-24356.63;4978549;28;20291;-59
2022/07/19 01:10:06;;;;;;;1.55;1.30;;;;;;;19.57;nan;-24361.50;4977413;28;20181;-59
2022/07/19 01:12:35;;;;;;;1.60;1.20;;;;;;;19.35;nan;-24355.66;4981047;28;20627;-59
2022/07/19 01:15:02;;;;;;;1.92;1.30;;;;;;;19.58;nan;-24361.78;4978976;28;20201;-60
2022/07/19 01:17:29;;;;;;;1.30;1.20;;;;;;;19.47;nan;-24358.84;4979275;28;20216;-59
2022/07/19 01:19:54;;;;;;;2.72;1.75;;;;;;;19.14;nan;-24349.81;4976904;28;20193;-58
2022/07/19 01:22:21;;;;;;;1.33;1.23;;;;;;;19.45;nan;-24358.16;4979177;28;20181;-60
2022/07/19 01:24:46;;;;;;;1.30;1.20;;;;;;;19.23;nan;-24352.31;4977422;28;20215;-59
2022/07/19 01:27:12;;;;;;;1.48;1.20;;;;;;;19.20;nan;-24351.34;4980255;28;20248;-59
2022/07/19 01:29:37;;;;;;;1.85;1.30;;;;;;;19.45;nan;-24358.16;4978079;28;20172;-57
2022/07/19 01:32:04;;;;;;;1.40;1.20;;;;;;;19.21;nan;-24351.75;4976733;28;20649;-60
2022/07/19 01:34:30;;;;;;;1.30;1.20;;;;;;;19.57;nan;-24361.50;4978698;28;20683;-59
2022/07/19 01:36:55;;;;;;;3.97;1.20;;;;;;;19.54;nan;-24360.66;4976685;28;20272;-59
2022/07/19 01:39:21;;;;;;;1.33;1.23;;;;;;;19.20;nan;-24351.34;4979014;28;20181;-59
2022/07/19 01:41:46;;;;;;;1.85;1.30;;;;;;;19.19;nan;-24351.22;4976997;28;20185;-59
2022/07/19 01:44:12;;;;;;;1.67;1.40;;;;;;;19.35;nan;-24355.53;4977157;28;20186;-58
2022/07/19 01:46:37;;;;;;;1.35;1.23;;;;;;;19.02;nan;-24346.47;4977701;28;20196;-58
2022/07/19 01:49:03;;;;;;;2.33;1.10;;;;;;;19.03;nan;-24346.63;4977087;28;20190;-59
2022/07/19 01:51:28;;;;;;;1.60;1.50;;;;;;;19.50;nan;-24359.56;4978950;28;20193;-59
2022/07/19 01:53:54;;;;;;;1.70;1.30;;;;;;;19.18;nan;-24350.94;4976595;28;20208;-59
2022/07/19 01:56:20;;;;;;;1.52;1.17;;;;;;;19.38;nan;-24356.50;4979057;28;20178;-59
2022/07/19 01:58:46;;;;;;;1.52;1.40;;;;;;;19.09;nan;-24348.44;4978825;28;20230;-58
2022/07/19 02:01:11;;;;;;;4.03;1.50;;;;;;;18.84;nan;-24341.47;4981041;28;20189;-59
2022/07/19 02:03:37;;;;;;;1.67;1.48;;;;;;;18.89;nan;-24342.84;4981706;28;20216;-59
2022/07/19 02:06:03;;;;;;;1.45;1.35;;;;;;;19.03;nan;-24346.63;4980223;28;20306;-59
2022/07/19 02:08:29;;;;;;;2.10;1.48;;;;;;;18.84;nan;-24341.47;4982380;28;20251;-59
2022/07/19 02:10:54;;;;;;;1.52;1.33;;;;;;;18.83;nan;-24341.19;4979825;28;20173;-59
2022/07/19 02:13:20;;;;;;;1.60;1.40;;;;;;;18.79;nan;-24340.06;4982304;28;20256;-59
2022/07/19 02:15:45;;;;;;;2.00;1.75;;;;;;;18.72;nan;-24338.13;4979990;28;20193;-60
2022/07/19 02:18:11;;;;;;;1.92;1.50;;;;;;;18.93;nan;-24343.97;4980865;28;20240;-59
2022/07/19 02:20:37;;;;;;;2.20;1.50;;;;;;;18.83;nan;-24341.19;4981129;28;20177;-59
2022/07/19 02:23:02;;;;;;;2.33;1.73;;;;;;;18.60;nan;-24334.78;4982301;28;20181;-59
2022/07/19 02:25:28;;;;;;;1.55;1.42;;;;;;;18.58;nan;-24334.38;4979901;28;20185;-59
2022/07/19 02:27:53;;;;;;;2.47;1.50;;;;;;;18.72;nan;-24338.25;4979162;28;20209;-59
2022/07/19 02:30:19;;;;;;;3.78;2.00;;;;;;;18.51;nan;-24332.41;4981862;28;20185;-58
2022/07/19 02:32:44;;;;;;;2.35;1.60;;;;;;;18.09;nan;-24320.97;4979830;28;20561;-59
2022/07/19 02:35:11;;;;;;;1.60;1.50;;;;;;;13.65;nan;-24198.00;4980366;28;20189;-58
2022/07/19 02:37:41;;;;;;;2.70;2.10;;;;;;;18.35;nan;-24327.94;4980464;28;20224;-59
2022/07/19 02:40:07;;;;;;;2.83;2.20;;;;;;;18.13;nan;-24321.81;4979864;28;20204;-59
2022/07/19 02:42:33;;;;;;;4.80;2.10;;;;;;;17.77;nan;-24312.06;4981293;28;20255;-60
2022/07/19 02:45:02;;;;;;;2.95;2.10;;;;;;;18.09;nan;-24320.97;4979713;28;20657;-59
2022/07/19 02:47:27;;;;;;;2.15;1.60;;;;;;;17.75;nan;-24311.38;4983610;28;20239;-59
2022/07/19 02:49:52;;;;;;;2.00;1.80;;;;;;;18.14;nan;-24322.09;4979053;28;20212;-59
2022/07/19 02:52:18;;;;;;;4.47;2.03;;;;;;;17.99;nan;-24318.19;4981726;28;20217;-58
2022/07/19 02:54:43;;;;;;;3.15;1.88;;;;;;;17.98;nan;-24317.78;4979845;28;20188;-59
2022/07/19 02:57:09;;;;;;;4.03;2.00;;;;;;;18.06;nan;-24320.00;4980137;28;20193;-58
2022/07/19 02:59:34;;;;;;;1.98;1.75;;;;;;;18.16;nan;-24322.81;4980435;28;20169;-58
2022/07/19 03:02:00;;;;;;;2.90;2.20;;;;;;;18.10;nan;-24321.13;4979295;28;20379;-58
2022/07/19 03:04:25;;;;;;;2.58;1.90;;;;;;;18.29;nan;-24326.41;4981314;28;20552;-59
2022/07/19 03:06:51;;;;;;;2.45;1.90;;;;;;;17.28;nan;-24298.53;4979043;28;20248;-59
2022/07/19 03:09:16;;;;;;;2.70;2.03;;;;;;;17.87;nan;-24314.84;4978072;28;20906;-59
2022/07/19 03:11:42;;;;;;;3.13;1.85;;;;;;;18.11;nan;-24321.41;4979530;28;20173;-59
2022/07/19 03:14:07;;;;;;;2.03;1.80;;;;;;;18.38;nan;-24328.94;4979319;28;20343;-58
2022/07/19 03:16:33;;;;;;;2.45;1.80;;;;;;;18.75;nan;-24339.09;4981013;28;20250;-59
2022/07/19 03:18:58;;;;;;;2.15;1.90;;;;;;;19.38;nan;-24356.50;4977048;28;20663;-59
2022/07/19 03:21:24;;;;;;;2.60;1.90;;;;;;;20.06;nan;-24375.13;4980949;28;20173;-59
2022/07/19 03:23:49;;;;;;;2.30;1.73;;;;;;;20.77;nan;-24394.41;4976061;28;20608;-60
2022/07/19 03:26:15;;;;;;;2.92;1.60;;;;;;;21.58;nan;-24416.75;4977842;28;20292;-60
2022/07/19 03:28:41;;;;;;;2.20;1.75;;;;;;;22.19;nan;-24433.38;4976357;28;20181;-59
2022/07/19 03:31:07;;;;;;;2.63;2.00;;;;;;;22.81;nan;-24450.38;4976335;28;20186;-61
2022/07/19 03:33:32;;;;;;;2.00;1.80;;;;;;;23.43;nan;-24467.25;4976570;28;20668;-60
2022/07/19 03:35:58;;;;;;;2.70;1.60;;;;;;;24.18;nan;-24487.94;4977338;28;20229;-59
2022/07/19 03:38:23;;;;;;;1.90;1.73;;;;;;;24.77;nan;-24503.94;4976283;28;20231;-60
2022/07/19 03:40:48;;;;;;;2.38;1.77;;;;;;;24.82;nan;-24505.19;4976796;28;20657;-60
2022/07/19 03:43:15;;;;;;;2.60;1.95;;;;;;;25.90;nan;-24534.63;4975736;28;20704;-60
2022/07/19 03:45:41;;;;;;;3.22;1.98;;;;;;;;;;4976635;28;20723;-60
2022/07/19 03:48:06;;;;;;;1.95;1.73;;;;;;;26.98;nan;-24563.88;4975575;28;20217;-60
2022/07/19 03:50:32;;;;;;;3.28;2.10;;;;;;;27.10;nan;-24567.31;4976076;28;20220;-59
2022/07/19 03:52:57;;;;;;;3.42;1.83;;;;;;;27.00;nan;-24564.56;4978241;28;21148;-60
2022/07/19 03:55:23;;;;;;;3.38;1.80;;;;;;;27.86;nan;-24587.88;4975995;28;20527;-61
2022/07/19 03:57:48;;;;;;;2.50;2.03;;;;;;;28.34;nan;-24600.75;4976871;28;20657;-61
2022/07/19 04:00:14;;;;;;;4.15;2.05;;;;;;;29.07;nan;-24620.44;4976914;28;20184;-60
2022/07/19 04:02:39;;;;;;;3.97;2.20;;;;;;;29.47;nan;-24631.34;4975470;28;20197;-60
2022/07/19 04:05:05;;;;;;;2.58;1.90;;;;;;;29.80;nan;-24640.34;4974049;28;20336;-61
2022/07/19 04:07:31;;;;;;;3.95;2.55;;;;;;;29.27;nan;-24625.88;4979158;28;20201;-60
2022/07/19 04:10:00;;;;;;;2.70;2.00;;;;;;;29.91;nan;-24643.09;4977464;28;20184;-61
2022/07/19 04:12:26;;;;;;;2.92;2.08;;;;;;;30.37;nan;-24655.63;4975733;28;20181;-60
2022/07/19 04:14:51;;;;;;;2.83;2.03;;;;;;;30.21;nan;-24651.28;4974620;28;20212;-60
2022/07/19 04:17:17;;;;;;;2.33;1.80;;;;;;;30.50;nan;-24659.03;4978222;28;20209;-60
2022/07/19 04:19:42;;;;;;;3.17;2.10;;;;;;;30.45;nan;-24657.66;4978072;28;20652;-59
2022/07/19 04:22:08;;;;;;;2.55;2.10;;;;;;;30.66;nan;-24663.53;5006777;28;20181;-59
2022/07/19 04:24:33;;;;;;;3.70;2.28;;;;;;;31.00;nan;-24672.53;4982223;28;20184;-59
2022/07/19 04:26:59;;;;;;;4.05;2.33;;;;;;;31.35;nan;-24681.91;4977236;28;20201;-61
2022/07/19 04:29:24;;;;;;;4.03;2.35;;;;;;;31.01;nan;-24672.78;4979260;28;20613;-60
2022/07/19 04:31:50;;;;;;;3.33;2.25;;;;;;;30.53;nan;-24660.00;4976887;28;20181;-61
2022/07/19 04:34:15;;;;;;;3.60;2.45;;;;;;;30.07;nan;-24647.59;4977651;28;20566;-60
2022/07/19 04:36:41;;;;;;;4.50;2.20;;;;;;;30.46;nan;-24658.09;4975342;28;20653;-60
2022/07/19 04:39:06;;;;;;;2.25;1.95;;;;;;;30.17;nan;-24650.19;4976715;28;20221;-61
2022/07/19 04:41:31;;;;;;;3.20;2.10;;;;;;;30.12;nan;-24648.81;4978775;28;20231;-61
2022/07/19 04:43:57;;;;;;;3.40;2.20;;;;;;;29.94;nan;-24643.91;4977067;28;20193;-61
2022/07/19 04:46:23;;;;;;;3.97;2.13;;;;;;;28.98;nan;-24618.25;4981242;28;20201;-60
2022/07/19 04:48:48;;;;;;;4.05;2.30;;;;;;;28.95;nan;-24617.28;5008264;28;20185;-60
2022/07/19 04:51:14;;;;;;;2.92;2.15;;;;;;;27.96;nan;-24590.47;4978412;28;20195;-60
2022/07/19 04:53:39;;;;;;;4.50;2.40;;;;;;;28.30;nan;-24599.78;4977905;28;20680;-60
2022/07/19 04:56:05;;;;;;;3.42;2.53;;;;;;;28.27;nan;-24598.81;4976748;28;20189;-59
2022/07/19 04:58:31;;;;;;;3.97;2.20;;;;;;;27.20;nan;-24570.06;4980785;28;20180;-61
2022/07/19 05:00:56;;;;;;;3.50;2.53;;;;;;;27.33;nan;-24573.34;4979319;28;20294;-60
2022/07/19 05:03:21;;;;;;;2.63;2.08;;;;;;;28.05;nan;-24593.06;4974466;28;20232;-61
2022/07/19 05:05:47;;;;;;;4.43;2.35;;;;;;;28.08;nan;-24593.75;4974537;28;20189;-60
2022/07/19 05:08:13;;;;;;;5.03;2.40;;;;;;;27.48;nan;-24577.44;4976813;28;20208;-61
2022/07/19 05:10:38;;;;;;;3.38;2.28;;;;;;;27.33;nan;-24573.34;4974436;28;20207;-62
2022/07/19 05:13:04;;;;;;;5.50;2.17;;;;;;;27.03;nan;-24565.25;4976974;28;20595;-60
2022/07/19 05:15:29;;;;;;;3.30;2.20;;;;;;;26.51;nan;-24551.25;4978756;28;20168;-61
2022/07/19 05:17:55;;;;;;;2.15;1.73;;;;;;;25.50;nan;-24523.75;4979083;28;20672;-61
2022/07/19 05:20:21;;;;;;;2.90;2.00;;;;;;;25.49;nan;-24523.47;4978971;28;20208;-62
2022/07/19 05:22:46;;;;;;;2.10;1.88;;;;;;;25.89;nan;-24534.50;4972437;28;20609;-60
2022/07/19 05:25:12;;;;;;;5.95;1.85;;;;;;;26.03;nan;-24538.19;4975514;28;20582;-62
2022/07/19 05:27:38;;;;;;;3.25;2.03;;;;;;;26.18;nan;-24542.19;4978107;28;20208;-60
2022/07/19 05:30:04;;;;;;;2.80;1.73;;;;;;;27.01;nan;-24564.84;4976554;28;20193;-60
2022/07/19 05:32:30;;;;;;;3.50;2.13;;;;;;;27.02;nan;-24565.13;4977236;28;20184;-59
2022/07/19 05:34:56;;;;;;;3.42;1.80;;;;;;;27.31;nan;-24572.94;4980573;28;20196;-59
2022/07/19 05:37:21;;;;;;;2.95;1.70;;;;;;;27.56;nan;-24579.66;4982384;28;20229;-60
2022/07/19 05:39:47;;;;;;;2.00;1.65;;;;;;;26.78;nan;-24558.66;4980290;28;20185;-59
2022/07/19 05:42:12;;;;;;;2.35;1.60;;;;;;;25.85;nan;-24533.38;4981792;28;20216;-60
2022/07/19 05:44:38;;;;;;;1.90;1.70;;;;;;;25.58;nan;-24525.97;4981451;28;20663;-60
2022/07/19 05:47:03;;;;;;;1.98;1.50;;;;;;;25.17;nan;-24514.81;4980606;28;20252;-59
2022/07/19 05:49:29;;;;;;;1.90;1.70;;;;;;;25.32;nan;-24518.94;4981931;28;20260;-60
2022/07/19 05:51:54;;;;;;;1.90;1.70;;;;;;;25.00;nan;-24510.13;4979594;28;20197;-60
2022/07/19 05:54:20;;;;;;;2.20;1.73;;;;;;;24.79;nan;-24504.47;4977420;28;20192;-60
2022/07/19 05:56:46;;;;;;;2.78;1.88;;;;;;;24.54;nan;-24497.59;4978018;28;20189;-65
2022/07/19 05:59:11;;;;;;;2.03;1.80;;;;;;;24.35;nan;-24492.34;4979786;28;20264;-60
2022/07/19 06:01:37;;;;;;;2.53;1.63;;;;;;;24.30;nan;-24491.13;4977793;28;20180;-61
2022/07/19 06:04:02;;;;;;;3.25;1.80;;;;;;;24.21;nan;-24488.63;4979698;28;20736;-59
2022/07/19 06:06:31;;;;;;;1.75;1.65;;;;;;;24.01;nan;-24483.25;4979273;28;20200;-59
2022/07/19 06:08:57;;;;;;;1.92;1.70;;;;;;;23.96;nan;-24481.88;4979634;28;20193;-60
2022/07/19 06:11:23;;;;;;;3.30;1.60;;;;;;;23.75;nan;-24476.22;4980634;28;20236;-61
2022/07/19 06:13:49;;;;;;;1.85;1.63;;;;;;;24.21;nan;-24488.63;4980358;28;20189;-59
2022/07/19 06:16:15;;;;;;;2.30;1.80;;;;;;;24.22;nan;-24488.91;4982052;28;20204;-59
2022/07/19 06:18:41;;;;;;;2.20;1.70;;;;;;;24.45;nan;-24495.13;4980798;28;20694;-61
2022/07/19 06:21:09;;;;;;;1.70;1.45;;;;;;;24.46;nan;-24495.53;4980717;28;20217;-61
2022/07/19 06:23:35;;;;;;;1.83;1.40;;;;;;;24.35;nan;-24492.50;4983183;28;20180;-59
2022/07/19 06:26:01;;;;;;;1.80;1.50;;;;;;;24.61;nan;-24499.66;4979928;28;20251;-60
2022/07/19 06:28:27;;;;;;;2.75;1.83;;;;;;;24.71;nan;-24502.16;4982054;28;20611;-60
2022/07/19 06:30:53;;;;;;;1.95;1.58;;;;;;;24.84;nan;-24505.72;4979611;28;20190;-60
2022/07/19 06:33:18;;;;;;;2.70;1.60;;;;;;;24.62;nan;-24499.94;4984487;28;20205;-61
2022/07/19 06:35:44;;;;;;;2.15;1.70;;;;;;;24.78;nan;-24504.06;4980133;28;20615;-61
2022/07/19 06:38:10;;;;;;;2.50;1.75;;;;;;;24.58;nan;-24498.69;4980517;28;20286;-61
2022/07/19 06:40:35;;;;;;;1.88;1.67;;;;;;;24.80;nan;-24504.75;4981433;28;20649;-61
2022/07/19 06:43:01;;;;;;;1.92;1.70;;;;;;;25.01;nan;-24510.56;4979822;28;20201;-61
2022/07/19 06:45:26;;;;;;;5.72;1.80;;;;;;;25.07;nan;-24512.19;4980218;28;20196;-60
2022/07/19 06:47:52;;;;;;;3.00;2.05;;;;;;;24.98;nan;-24509.59;4979196;28;20217;-60
2022/07/19 06:50:18;;;;;;;4.93;1.88;;;;;;;25.06;nan;-24511.78;4981691;28;20264;-60
2022/07/19 06:52:43;;;;;;;4.72;2.13;;;;;;;24.68;nan;-24501.47;4979341;28;20189;-60
2022/07/19 06:55:09;;;;;;;2.45;1.77;;;;;;;24.76;nan;-24503.66;4979843;28;20194;-61
2022/07/19 06:57:35;;;;;;;1.70;1.60;;;;;;;24.90;nan;-24507.53;4980883;28;20177;-60
2022/07/19 07:00:00;;;;;;;3.45;2.00;;;;;;;25.07;nan;-24512.06;4979390;28;20189;-60
2022/07/19 07:02:26;;;;;;;2.95;1.77;;;;;;;25.23;nan;-24516.47;4981468;28;20181;-60
2022/07/19 07:04:51;;;;;;;2.72;1.60;;;;;;;25.23;nan;-24516.47;4979055;28;20189;-61
2022/07/19 07:07:16;;;;;;;3.33;1.92;;;;;;;25.65;nan;-24527.88;4981380;28;20552;-60
2022/07/19 07:09:42;;;;;;;2.85;1.80;;;;;;;25.69;nan;-24528.84;4979419;28;20177;-60
2022/07/19 07:12:08;;;;;;;2.38;1.80;;;;;;;25.69;nan;-24528.84;4976516;28;20675;-59
2022/07/19 07:14:34;;;;;;;2.10;1.90;;;;;;;25.66;nan;-24528.16;4974893;28;20181;-60
2022/07/19 07:17:00;;;;;;;2.67;2.03;;;;;;;25.54;nan;-24524.88;4974462;28;20285;-60
2022/07/19 07:19:26;;;;;;;2.47;1.90;;;;;;;25.80;nan;-24531.88;4974443;28;20200;-60
2022/07/19 07:21:51;;;;;;;2.95;1.90;;;;;;;25.97;nan;-24536.56;4973129;28;20201;-61
2022/07/19 07:24:17;;;;;;;2.13;1.80;;;;;;;26.20;nan;-24542.72;4976711;28;20186;-60
2022/07/19 07:26:43;;;;;;;2.25;1.73;;;;;;;26.48;nan;-24550.28;4976686;28;20193;-61
2022/07/19 07:29:09;;;;;;;2.78;1.80;;;;;;;26.36;nan;-24547.28;4974933;28;20181;-60
2022/07/19 07:31:34;;;;;;;2.70;1.95;;;;;;;26.45;nan;-24549.47;4975978;28;20174;-63
2022/07/19 07:34:00;;;;;;;4.50;1.88;;;;;;;26.63;nan;-24554.41;4976390;28;20196;-61
2022/07/19 07:36:25;;;;;;;2.33;1.95;;;;;;;26.38;nan;-24547.81;4978349;28;20180;-62
2022/07/19 07:38:51;;;;;;;2.03;1.70;;;;;;;26.37;nan;-24547.53;4976093;28;20597;-61
2022/07/19 07:41:16;;;;;;;3.45;1.80;;;;;;;26.06;nan;-24539.03;4974050;28;20189;-60
2022/07/19 07:43:42;;;;;;;2.10;1.77;;;;;;;25.97;nan;-24536.41;4976274;28;20230;-60
2022/07/19 07:46:07;;;;;;;2.00;1.70;;;;;;;26.29;nan;-24545.22;4975966;28;20284;-61
2022/07/19 07:48:32;;;;;;;5.05;1.70;;;;;;;26.46;nan;-24549.75;4974097;28;20177;-60
2022/07/19 07:50:58;;;;;;;3.45;1.65;;;;;;;26.48;nan;-24550.28;4973611;28;20716;-59
2022/07/19 07:53:23;;;;;;;2.88;1.80;;;;;;;26.20;nan;-24542.72;4976530;28;20181;-60
2022/07/19 07:55:49;;;;;;;3.03;2.08;;;;;;;26.01;nan;-24537.66;4978243;28;20668;-59
2022/07/19 07:58:14;;;;;;;1.80;1.60;;;;;;;;;;4981951;28;20669;-60
2022/07/19 08:00:40;;;;;;;1.90;1.60;;;;;;;26.53;nan;-24551.81;4978912;28;20187;-60
2022/07/19 08:03:06;;;;;;;2.28;2.08;;;;;;;26.78;nan;-24558.53;4973652;28;20573;-60
2022/07/19 08:05:32;;;;;;;5.28;1.85;;;;;;;26.77;nan;-24558.25;4975639;28;20179;-60
2022/07/19 08:07:59;;;;;;;1.77;1.50;;;;;;;27.01;nan;-24564.84;4978220;28;20213;-60
2022/07/19 08:10:27;;;;;;;2.47;1.60;;;;;;;27.36;nan;-24574.16;4979907;28;20186;-60
2022/07/19 08:12:53;;;;;;;1.90;1.52;;;;;;;27.41;nan;-24575.53;4975596;28;20625;-60
2022/07/19 08:15:20;;;;;;;2.03;1.55;;;;;;;27.46;nan;-24576.91;4982036;28;20185;-61
2022/07/19 08:17:46;;;;;;;1.58;1.42;;;;;;;27.68;nan;-24582.94;4975746;28;20189;-59
2022/07/19 08:20:11;;;;;;;1.80;1.40;;;;;;;27.85;nan;-24587.59;4978313;28;20197;-58
2022/07/19 08:22:37;;;;;;;2.45;1.67;;;;;;;27.79;nan;-24585.81;4979404;28;20196;-60
2022/07/19 08:25:03;;;;;;;1.40;1.30;;;;;;;27.63;nan;-24581.56;4975423;28;20181;-60
2022/07/19 08:27:29;;;;;;;1.45;1.30;;;;;;;28.00;nan;-24591.69;4977660;28;20691;-60
2022/07/19 08:29:54;;;;;;;1.58;1.45;;;;;;;28.08;nan;-24593.88;4975076;28;20256;-60
2022/07/19 08:32:20;;;;;;;3.03;1.58;;;;;;;28.16;nan;-24595.94;4977531;28;20239;-60
2022/07/19 08:34:45;;;;;;;2.00;1.38;;;;;;;27.92;nan;-24589.50;4975359;28;20208;-60
2022/07/19 08:37:11;;;;;;;1.63;1.40;;;;;;;28.12;nan;-24594.84;4978362;28;20225;-60
2022/07/19 08:39:36;;;;;;;1.52;1.42;;;;;;;27.70;nan;-24583.47;4976362;28;20180;-60
2022/07/19 08:42:03;;;;;;;1.77;1.58;;;;;;;22.74;nan;-24448.44;4978067;28;20185;-60
2022/07/19 08:44:29;;;;;;;2.10;1.67;;;;;;;27.44;nan;-24576.34;4979623;28;20216;-59
2022/07/19 08:46:54;;;;;;;2.67;1.52;;;;;;;27.67;nan;-24582.81;5008798;28;20209;-60
2022/07/19 08:49:20;;;;;;;1.40;1.30;;;;;;;27.85;nan;-24587.59;4979444;28;20188;-60
2022/07/19 08:51:48;;;;;;;4.05;1.48;;;;;;;27.94;nan;-24589.91;4977087;28;20561;-59
2022/07/19 08:54:14;;;;;;;1.45;1.35;;;;;;;28.25;nan;-24598.28;4978184;28;20180;-59
2022/07/19 08:59:24;;;;;;;1.70;1.40;;;;;;;27.87;nan;-24588.13;4971071;28;20188;-59
2022/07/19 09:01:50;;;;;;;1.23;1.13;;;;;;;27.41;nan;-24575.66;4974407;28;20181;-61
2022/07/19 09:04:19;;;;;;;1.55;1.17;;;;;;;28.29;nan;-24599.50;4981659;28;20741;-59
2022/07/19 09:06:53;;;;;;;1.48;1.38;;;;;;;28.04;nan;-24592.66;4976726;28;20259;-60
2022/07/19 09:09:23;;;;;;;1.48;1.23;;;;;;;28.09;nan;-24594.16;4982385;28;20196;-60
2022/07/19 09:11:51;;;;;;;1.70;1.50;;;;;;;27.91;nan;-24589.25;4981217;28;20631;-60
2022/07/19 09:14:19;;;;;;;2.15;1.40;;;;;;;27.58;nan;-24580.34;4982067;28;20471;-59
2022/07/19 09:17:16;;;;;;;2.28;1.35;;;;;;;27.12;nan;-24567.84;4981047;28;20272;-61
2022/07/19 09:19:43;;;;;;;1.42;1.33;;;;;;;27.29;nan;-24572.38;4983822;28;20181;-61
2022/07/19 09:22:17;;;;;;;1.95;1.60;;;;;;;27.90;nan;-24588.81;4981423;28;20188;-60
2022/07/19 09:24:46;;;;;;;1.83;1.40;;;;;;;27.91;nan;-24589.25;4981292;28;20236;-60
2022/07/19 09:27:17;;;;;;;2.22;1.60;;;;;;;27.78;nan;-24585.53;4981519;28;20271;-60
2022/07/19 09:29:45;;;;;;;1.88;1.38;;;;;;;28.14;nan;-24595.25;4981125;28;20173;-59
2022/07/19 09:32:13;;;;;;;1.65;1.42;;;;;;;28.15;nan;-24595.53;4981414;28;20247;-60
2022/07/19 09:34:49;;;;;;;1.40;1.30;;;;;;;28.42;nan;-24602.94;4981702;28;20271;-59
2022/07/19 09:37:22;;;;;;;1.60;1.50;;;;;;;28.76;nan;-24612.09;4981703;28;20698;-58
2022/07/19 09:39:51;;;;;;;2.33;1.58;;;;;;;29.06;nan;-24620.16;4979094;28;20181;-61
2022/07/19 09:42:41;;;;;;;1.95;1.60;;;;;;;28.99;nan;-24618.50;4982618;28;20185;-60
2022/07/19 09:45:12;;;;;;;2.13;1.60;;;;;;;28.48;nan;-24604.69;4980807;28;20582;-60
2022/07/19 09:47:42;;;;;;;1.60;1.40;;;;;;;28.51;nan;-24605.53;4981692;28;20244;-60
2022/07/19 09:50:16;;;;;;;3.17;1.80;;;;;;;28.62;nan;-24608.41;4980977;28;20657;-59
2022/07/19 09:52:43;;;;;;;1.45;1.20;;;;;;;28.52;nan;-24605.66;4981116;28;20191;-60
2022/07/19 09:55:10;;;;;;;1.30;1.20;;;;;;;28.57;nan;-24607.03;4980647;28;20223;-60
2022/07/19 09:57:39;;;;;;;1.92;1.40;;;;;;;28.95;nan;-24617.28;4982138;28;20185;-60
2022/07/19 10:00:07;;;;;;;2.13;1.50;;;;;;;28.88;nan;-24615.38;4981577;28;20199;-61
2022/07/19 10:02:38;;;;;;;2.33;1.48;;;;;;;28.91;nan;-24616.19;4979693;28;20178;-60
2022/07/19 10:05:05;;;;;;;1.77;1.55;;;;;;;29.53;nan;-24632.84;4977088;28;20185;-61
2022/07/19 10:07:32;;;;;;;1.30;1.20;;;;;;;29.96;nan;-24644.47;4977641;28;20218;-61
2022/07/19 10:10:01;;;;;;;1.70;1.40;;;;;;;30.18;nan;-24650.44;4977674;28;20600;-62
2022/07/19 10:12:28;;;;;;;1.90;1.55;;;;;;;30.46;nan;-24658.09;4981838;28;20180;-62
2022/07/19 10:14:55;;;;;;;1.80;1.50;;;;;;;30.21;nan;-24651.41;4979246;28;20612;-61
2022/07/19 10:17:30;;;;;;;4.68;1.58;;;;;;;30.43;nan;-24657.13;4981219;28;20670;-61
2022/07/19 10:19:56;;;;;;;2.20;1.60;;;;;;;25.93;nan;-24535.44;4979748;28;20184;-60
2022/07/19 10:22:24;;;;;;;1.83;1.50;;;;;;;30.43;nan;-24657.25;4979821;28;20183;-60
2022/07/19 10:24:56;;;;;;;1.77;1.52;;;;;;;30.97;nan;-24671.69;4977211;28;20223;-65
2022/07/19 10:27:25;;;;;;;1.65;1.40;;;;;;;30.27;nan;-24652.91;4984105;28;20836;-61
2022/07/19 10:29:57;;;;;;;1.90;1.60;;;;;;;29.93;nan;-24643.63;4979751;28;20177;-63
2022/07/19 10:32:31;;;;;;;1.50;1.40;;;;;;;30.06;nan;-24647.31;4978859;28;20259;-60
2022/07/19 10:35:21;;;;;;;1.85;1.45;;;;;;;30.27;nan;-24653.03;4974947;28;20571;-60
2022/07/19 10:37:49;;;;;;;2.05;1.40;;;;;;;30.86;nan;-24668.72;4976693;28;21097;-62
2022/07/19 10:40:40;;;;;;;1.80;1.40;;;;;;;30.94;nan;-24670.88;4979477;28;20192;-61
2022/07/19 10:43:11;;;;;;;2.13;1.60;;;;;;;30.06;nan;-24647.31;4974873;28;20191;-60
2022/07/19 10:45:55;;;;;;;2.75;1.60;;;;;;;29.31;nan;-24627.00;4977364;28;20187;-60
2022/07/19 10:48:50;;;;;;;1.50;1.40;;;;;;;29.30;nan;-24626.72;4978986;28;20287;-60
2022/07/19 10:51:34;;;;;;;1.98;1.40;;;;;;;29.63;nan;-24635.72;4980239;28;20181;-61
2022/07/19 10:54:06;;;;;;;1.98;1.40;;;;;;;29.34;nan;-24627.81;4979054;28;20181;-61
2022/07/19 10:56:34;;;;;;;1.98;1.50;;;;;;;29.46;nan;-24630.94;4974673;28;20185;-59
2022/07/19 10:59:13;;;;;;;2.00;1.45;;;;;;;29.26;nan;-24625.63;4974656;28;20212;-61
2022/07/19 11:02:00;;;;;;;2.00;1.60;;;;;;;29.52;nan;-24632.72;4974377;28;20169;-62
2022/07/19 11:04:35;;;;;;;1.98;1.48;;;;;;;28.96;nan;-24617.56;4974725;28;20228;-61
2022/07/19 11:07:22;;;;;;;1.98;1.48;;;;;;;26.64;nan;-24554.81;4976544;28;20203;-61
2022/07/19 11:09:56;;;;;;;2.10;1.60;;;;;;;29.80;nan;-24640.22;4975675;28;20594;-61
2022/07/19 11:12:33;;;;;;;1.80;1.60;;;;;;;29.54;nan;-24633.25;4978856;28;20231;-62
2022/07/19 11:15:02;;;;;;;1.40;1.30;;;;;;;29.37;nan;-24628.63;4978615;28;20251;-60
2022/07/19 11:17:28;;;;;;;2.00;1.70;;;;;;;29.08;nan;-24620.84;4980142;28;20570;-62
2022/07/19 11:20:00;;;;;;;2.28;1.70;;;;;;;28.97;nan;-24617.97;4978103;28;20188;-61
2022/07/19 11:22:26;;;;;;;1.63;1.50;;;;;;;28.72;nan;-24611.13;4978178;28;20577;-60
2022/07/19 11:24:52;;;;;;;2.50;1.90;;;;;;;28.93;nan;-24616.75;4978335;28;20196;-61
2022/07/19 11:27:17;;;;;;;2.10;1.63;;;;;;;28.90;nan;-24616.06;4980426;28;20681;-61
2022/07/19 11:29:56;;;;;;;1.50;1.40;;;;;;;28.59;nan;-24607.56;4974689;28;20649;-60
2022/07/19 11:32:22;;;;;;;2.35;1.80;;;;;;;28.51;nan;-24605.38;4974084;28;20561;-61
2022/07/19 11:34:55;;;;;;;2.13;1.45;;;;;;;28.61;nan;-24607.97;4974173;28;20173;-62
2022/07/19 11:37:32;;;;;;;1.73;1.50;;;;;;;28.77;nan;-24612.50;4973660;28;20288;-60
2022/07/19 11:39:58;;;;;;;2.78;1.65;;;;;;;29.02;nan;-24619.19;4973769;28;20184;-61
2022/07/19 11:42:48;;;;;;;1.60;1.50;;;;;;;29.37;nan;-24628.63;4975987;28;20185;-60
2022/07/19 11:45:16;;;;;;;2.35;1.60;;;;;;;29.61;nan;-24635.19;4978914;28;20672;-61
2022/07/19 11:47:47;;;;;;;3.65;1.80;;;;;;;29.85;nan;-24641.72;4978946;28;20223;-63